Time;durP1;ratioP1;P1;durP2;ratioP2;P2;SDS_P1;SDS_P2;PMS_P1;PMS_P2;Temp;Humidity;BMP_temperature;BMP_pressure;BME280_temperature;BME280_humidity;BME280_pressure;Samples;Min_cycle;Max_cycle;Signal;HPM_P1;HPM_P2
2023/03/08 00:01:22;;;;;;;6.53;4.10;;;5.20;47.70;;;8.48;35.57;96238.44;5070239;28;20393;-40
2023/03/08 00:03:52;;;;;;;6.43;3.93;;;5.20;48.00;;;8.46;35.79;96222.69;5070786;28;20040;-40
2023/03/08 00:06:21;;;;;;;6.87;4.13;;;5.10;48.10;;;8.47;35.40;96213.75;5069709;28;20047;-40
2023/03/08 00:08:48;;;;;;;8.20;4.33;;;5.10;48.30;;;8.50;35.36;96230.31;5070683;28;20047;-40
2023/03/08 00:11:17;;;;;;;6.30;3.97;;;5.10;48.30;;;8.52;35.50;96236.25;5070909;28;20036;-40
2023/03/08 00:13:44;;;;;;;6.60;4.00;;;5.20;48.40;;;8.48;35.43;96235.78;5070128;28;20036;-40
2023/03/08 00:16:12;;;;;;;7.93;4.70;;;5.10;48.50;;;8.44;35.46;96242.47;5069981;28;20399;-41
2023/03/08 00:18:40;;;;;;;8.60;4.50;;;5.10;48.50;;;8.46;35.80;96229.84;5052798;28;20044;-40
2023/03/08 00:21:15;;;;;;;11.67;6.70;;;5.10;48.60;;;8.47;35.50;96226.16;5070375;28;20037;-40
2023/03/08 00:23:43;;;;;;;8.03;4.67;;;5.10;48.60;;;8.44;35.73;96231.84;5070540;28;20045;-41
2023/03/08 00:26:11;;;;;;;10.97;6.17;;;5.10;48.80;;;8.42;35.56;96239.97;5070172;28;20388;-41
2023/03/08 00:28:40;;;;;;;17.40;10.33;;;5.00;48.60;;;8.40;35.41;96241.97;5070296;28;20044;-40
2023/03/08 00:31:11;;;;;;;18.60;10.93;;;5.00;49.40;;;8.39;35.64;96245.59;5051791;28;20044;-41
2023/03/08 00:33:39;;;;;;;9.20;6.03;;;5.00;48.90;;;8.35;35.67;96246.97;5051603;28;20071;-40
2023/03/08 00:36:17;;;;;;;10.40;5.07;;;5.00;48.90;;;8.32;35.58;96252.66;5051862;28;20055;-41
2023/03/08 00:38:47;;;;;;;28.40;15.27;;;4.90;48.90;;;8.27;35.90;96261.13;5070411;28;20043;-40
2023/03/08 00:41:14;;;;;;;33.47;16.30;;;4.90;49.20;;;8.25;35.86;96249.06;5070140;28;20049;-40
2023/03/08 00:43:42;;;;;;;9.63;6.13;;;4.80;49.20;;;8.26;35.89;96246.25;5051845;28;20063;-40
2023/03/08 00:46:11;;;;;;;6.67;4.13;;;4.90;49.10;;;8.27;35.81;96226.66;5072306;28;20044;-41
2023/03/08 00:48:39;;;;;;;8.77;6.43;;;4.90;49.10;;;8.27;36.04;96236.47;5056319;28;20040;-41
2023/03/08 00:51:11;;;;;;;13.97;8.53;;;4.90;49.20;;;8.27;35.95;96234.63;5073625;28;20048;-40
2023/03/08 00:53:38;;;;;;;14.47;8.33;;;4.90;49.40;;;8.27;35.83;96218.72;5055673;28;20492;-40
2023/03/08 00:56:06;;;;;;;9.87;7.10;;;4.90;49.20;;;8.23;35.77;96216.63;5073014;28;20044;-42
2023/03/08 00:58:38;;;;;;;9.33;5.73;;;4.90;49.20;;;8.19;36.03;96202.91;5055168;28;20048;-40
2023/03/08 01:01:08;;;;;;;7.53;5.30;;;4.80;49.30;;;8.16;36.04;96203.28;5055915;28;20048;-40
2023/03/08 01:03:35;;;;;;;7.73;4.73;;;4.70;49.50;;;8.09;35.80;96199.69;5038730;28;20044;-41
2023/03/08 01:06:10;;;;;;;9.97;5.20;;;4.70;49.50;;;8.04;36.21;96200.22;5072821;28;20045;-41
2023/03/08 01:08:40;;;;;;;8.23;5.00;;;4.60;49.60;;;8.02;35.92;96196.94;5055721;28;20048;-41
2023/03/08 01:11:17;;;;;;;9.10;5.07;;;4.60;49.60;;;7.95;36.10;96197.81;5054943;28;20045;-41
2023/03/08 01:13:46;;;;;;;9.40;5.07;;;4.60;50.10;;;7.91;36.07;96196.53;5054542;28;20049;-41
2023/03/08 01:16:24;;;;;;;8.17;5.20;;;4.50;50.20;;;7.85;36.06;96187.47;5072788;28;20044;-41
2023/03/08 01:18:52;;;;;;;9.63;5.80;;;4.40;50.20;;;7.79;36.17;96186.41;5073340;28;20044;-40
2023/03/08 01:21:20;;;;;;;8.00;4.77;;;4.40;50.40;;;7.77;36.74;96180.44;5073015;28;20067;-40
2023/03/08 01:23:48;;;;;;;8.73;5.77;;;4.30;50.60;;;7.71;36.60;96173.22;5073151;28;20047;-41
2023/03/08 01:26:20;;;;;;;9.43;4.97;;;4.30;50.60;;;7.64;36.67;96172.28;5072642;28;20163;-41
2023/03/08 01:28:49;;;;;;;8.77;5.77;;;4.30;51.00;;;7.61;36.66;96165.50;5072918;28;20044;-41
2023/03/08 01:31:26;;;;;;;9.70;5.57;;;4.30;50.90;;;7.60;36.66;96166.53;5069392;28;20044;-41
2023/03/08 01:33:56;;;;;;;9.07;5.37;;;4.20;51.20;;;7.56;37.01;96161.75;5061786;28;20052;-40
2023/03/08 01:36:26;;;;;;;11.73;5.23;;;4.20;51.40;;;7.51;36.91;96156.19;5070830;28;20416;-41
2023/03/08 01:38:54;;;;;;;11.17;5.57;;;4.10;51.60;;;7.43;36.61;96152.59;5072997;28;20033;-40
2023/03/08 01:41:29;;;;;;;9.77;6.07;;;4.10;51.60;;;7.41;37.17;96156.44;5053493;28;20045;-41
2023/03/08 01:43:56;;;;;;;12.17;5.80;;;4.10;51.90;;;7.40;36.90;96157.41;5054502;28;20070;-40
2023/03/08 01:46:35;;;;;;;9.73;5.73;;;4.10;51.60;;;7.38;36.82;96146.19;5053578;28;20075;-40
2023/03/08 01:49:29;;;;;;;11.30;6.47;;;4.10;52.20;;;7.33;37.21;96146.72;5054529;28;20052;-40
2023/03/08 01:52:17;;;;;;;10.45;6.00;;;4.00;52.10;;;7.28;37.31;96151.72;5038314;28;20053;-41
2023/03/08 01:54:53;;;;;;;11.67;6.40;;;4.00;52.50;;;7.21;37.70;96143.66;5032524;28;20049;-41
2023/03/08 01:57:28;;;;;;;14.00;6.77;;;3.90;52.80;;;7.21;37.46;96145.47;5053522;28;20040;-41
2023/03/08 02:00:08;;;;;;;10.83;7.20;;;3.90;52.70;;;7.17;37.58;96152.94;5070728;28;20416;-41
2023/03/08 02:02:52;;;;;;;9.57;6.03;;;3.90;53.40;;;7.18;37.73;96144.00;5049366;28;20515;-40
2023/03/08 02:05:20;;;;;;;11.60;6.93;;;3.80;53.30;;;7.17;37.89;96142.34;5038026;28;20519;-40
2023/03/08 02:07:51;;;;;;;9.30;6.20;;;3.80;53.10;;;7.14;38.19;96150.66;5053605;28;20040;-41
2023/03/08 02:10:20;;;;;;;10.33;6.37;;;3.80;53.20;;;7.12;38.01;96147.38;5061577;28;20049;-41
2023/03/08 02:12:48;;;;;;;14.07;7.13;;;3.80;53.40;;;7.13;37.72;96148.19;5037851;28;20044;-40
2023/03/08 02:15:19;;;;;;;11.67;6.67;;;3.70;53.80;;;7.12;38.49;96147.38;5071996;28;20051;-41
2023/03/08 02:17:50;;;;;;;12.00;7.33;;;3.70;54.20;;;7.08;37.89;96143.44;5052823;28;20041;-40
2023/03/08 02:20:31;;;;;;;12.73;7.17;;;3.70;54.40;;;7.05;38.40;96131.34;5045446;28;20510;-40
2023/03/08 02:23:16;;;;;;;8.33;5.80;;;3.60;54.70;;;7.04;38.04;96123.63;5054122;28;20064;-41
2023/03/08 02:25:57;;;;;;;11.73;7.03;;;3.70;54.60;;;7.02;38.58;96115.03;5047586;28;20045;-40
2023/03/08 02:28:26;;;;;;;11.80;6.77;;;3.70;55.00;;;7.02;39.01;96118.50;5071416;28;20052;-41
2023/03/08 02:30:55;;;;;;;10.80;6.77;;;3.60;55.00;;;7.01;38.85;96116.03;5053471;28;20512;-40
2023/03/08 02:33:23;;;;;;;10.17;6.20;;;3.60;55.60;;;7.02;38.94;96121.13;5071413;28;20041;-40
2023/03/08 02:35:51;;;;;;;15.63;7.93;;;3.70;55.30;;;7.02;38.99;96118.50;5071413;28;20044;-41
2023/03/08 02:38:20;;;;;;;12.60;7.07;;;3.70;55.30;;;7.05;38.73;96104.06;5071471;28;20044;-40
2023/03/08 02:40:50;;;;;;;13.97;7.13;;;3.70;55.20;;;7.08;38.85;96101.91;5069974;28;20071;-40
2023/03/08 02:43:18;;;;;;;12.03;7.07;;;3.80;55.60;;;7.10;39.16;96091.97;5053105;28;20048;-40
2023/03/08 02:45:46;;;;;;;14.53;7.70;;;3.80;55.10;;;7.09;39.01;96090.34;5071038;28;20048;-40
2023/03/08 02:48:15;;;;;;;11.47;6.87;;;3.80;55.20;;;7.07;39.31;96096.78;5036831;28;20044;-40
2023/03/08 02:50:43;;;;;;;13.60;6.87;;;3.80;55.70;;;7.13;39.53;96087.31;5071530;28;20044;-41
2023/03/08 02:53:10;;;;;;;12.50;7.13;;;3.80;55.10;;;7.15;38.86;96090.59;5036362;28;20393;-41
2023/03/08 02:55:38;;;;;;;12.60;8.17;;;3.90;55.70;;;7.10;39.48;96086.66;5052920;28;20047;-40
2023/03/08 02:58:11;;;;;;;10.43;7.00;;;3.90;55.50;;;7.17;39.29;96093.91;5052753;28;20053;-40
2023/03/08 03:00:38;;;;;;;12.17;7.10;;;3.90;55.20;;;7.22;39.33;96083.59;5052794;28;20041;-41
2023/03/08 03:03:06;;;;;;;13.47;7.73;;;3.90;55.40;;;7.26;39.00;96082.25;5071630;28;20044;-41
2023/03/08 03:05:34;;;;;;;13.63;7.57;;;4.00;55.10;;;7.23;38.93;96074.66;5053217;28;20036;-41
2023/03/08 03:08:05;;;;;;;11.87;7.33;;;3.90;55.30;;;7.25;38.90;96073.50;5052993;28;20045;-41
2023/03/08 03:10:35;;;;;;;11.87;7.73;;;3.90;55.00;;;7.30;39.32;96059.72;5049335;28;20048;-41
2023/03/08 03:13:05;;;;;;;12.57;7.40;;;4.00;55.10;;;7.35;38.88;96044.13;5056880;28;20554;-41
2023/03/08 03:15:36;;;;;;;13.50;7.10;;;4.00;55.00;;;7.35;39.08;96038.81;5052326;28;20063;-41
2023/03/08 03:18:04;;;;;;;11.57;7.17;;;4.00;55.00;;;7.39;38.89;96034.81;5071079;28;20047;-40
2023/03/08 03:20:33;;;;;;;11.47;6.73;;;4.00;55.00;;;7.36;38.68;96032.50;5052524;28;20420;-41
2023/03/08 03:23:01;;;;;;;11.50;6.83;;;4.00;55.00;;;7.41;39.16;96024.84;5070608;28;20044;-41
2023/03/08 03:25:39;;;;;;;12.20;6.70;;;4.00;55.00;;;7.44;38.49;96015.72;5042090;28;20052;-40
2023/03/08 03:28:11;;;;;;;11.53;6.97;;;4.00;54.80;;;7.46;38.96;96017.22;5066349;28;20040;-40
2023/03/08 03:30:39;;;;;;;12.93;6.90;;;4.00;54.90;;;7.43;38.71;96024.69;5071049;28;20032;-40
2023/03/08 03:33:09;;;;;;;14.40;7.83;;;4.00;55.10;;;7.44;38.67;96021.00;5052471;28;20041;-41
2023/03/08 03:35:38;;;;;;;11.87;6.10;;;4.00;54.90;;;7.41;38.66;96019.56;5062663;28;20048;-40
2023/03/08 03:38:07;;;;;;;15.10;7.20;;;4.00;55.00;;;7.34;39.32;96012.53;5052394;28;20049;-41
2023/03/08 03:40:35;;;;;;;10.80;6.47;;;3.90;55.20;;;7.29;38.57;96008.59;5052805;28;20056;-40
2023/03/08 03:43:03;;;;;;;11.83;6.23;;;3.90;55.00;;;7.23;38.88;96009.31;5052802;28;20060;-41
2023/03/08 03:45:31;;;;;;;16.63;7.40;;;3.90;54.80;;;7.21;39.26;96003.38;5071004;28;20083;-40
2023/03/08 03:47:59;;;;;;;13.60;6.67;;;3.80;54.80;;;7.15;38.97;95998.78;5052597;28;20056;-40
2023/03/08 03:50:27;;;;;;;11.07;6.10;;;3.80;54.70;;;7.05;38.63;95993.75;5051968;28;20059;-40
2023/03/08 03:53:00;;;;;;;13.77;6.27;;;3.80;54.80;;;7.07;39.21;95999.69;5036409;28;20048;-40
2023/03/08 03:55:28;;;;;;;12.07;7.60;;;3.80;54.90;;;7.02;39.45;96001.25;5052765;28;20044;-41
2023/03/08 03:57:56;;;;;;;11.97;7.17;;;3.80;54.80;;;7.03;39.42;96005.53;5051971;28;20052;-41
2023/03/08 04:00:23;;;;;;;11.47;6.23;;;3.80;54.70;;;7.07;38.92;95999.69;5051818;28;20049;-41
2023/03/08 04:03:03;;;;;;;11.53;7.43;;;3.80;54.80;;;7.13;38.83;96000.78;5053989;28;20048;-41
2023/03/08 04:05:32;;;;;;;14.10;7.13;;;3.80;54.70;;;7.19;38.65;95988.66;5052044;28;20048;-40
2023/03/08 04:08:00;;;;;;;13.13;7.33;;;3.90;54.70;;;7.22;38.97;95972.44;5069076;28;20192;-40
2023/03/08 04:10:30;;;;;;;10.07;5.90;;;3.90;54.70;;;7.26;38.76;95979.00;5051626;28;20059;-40
2023/03/08 04:12:58;;;;;;;10.73;6.63;;;3.90;54.50;;;7.28;38.80;95974.34;5052859;28;20538;-41
2023/03/08 04:15:27;;;;;;;11.47;7.33;;;3.90;54.60;;;7.31;38.61;95966.06;5052633;28;20249;-41
2023/03/08 04:17:57;;;;;;;11.03;7.27;;;3.90;55.00;;;7.32;39.13;95967.69;5069154;28;20037;-41
2023/03/08 04:20:26;;;;;;;13.07;7.13;;;3.90;54.90;;;7.32;39.11;95978.28;5053259;28;20060;-40
2023/03/08 04:22:58;;;;;;;12.07;6.63;;;3.90;55.00;;;7.30;38.96;95962.56;5056532;28;20060;-41
2023/03/08 04:25:35;;;;;;;14.97;6.93;;;3.90;55.00;;;7.33;39.27;95966.69;5056148;28;20045;-41
2023/03/08 04:28:04;;;;;;;12.23;7.33;;;3.90;55.00;;;7.29;38.95;95982.13;5055668;28;20051;-40
2023/03/08 04:30:32;;;;;;;11.70;7.07;;;3.90;55.00;;;7.24;39.22;95981.84;5055720;28;20076;-41
2023/03/08 04:33:02;;;;;;;13.33;7.97;;;3.90;55.00;;;7.30;38.98;95977.66;5052477;28;20055;-41
2023/03/08 04:35:37;;;;;;;11.73;6.90;;;3.90;55.10;;;7.34;38.73;95964.88;5047638;28;20052;-40
2023/03/08 04:38:05;;;;;;;13.30;6.97;;;3.90;55.00;;;7.37;38.83;95957.38;5056450;28;20048;-40
2023/03/08 04:41:00;;;;;;;10.07;6.87;;;4.00;55.00;;;7.40;38.82;95942.97;5056153;28;20060;-41
2023/03/08 04:43:21;;;;;;;11.27;6.90;;;4.00;54.50;;;7.42;38.73;95940.94;5055884;28;20049;-40
2023/03/08 04:45:50;;;;;;;11.80;6.63;;;4.10;54.50;;;7.38;38.94;95937.84;5055595;28;20044;-40
2023/03/08 04:48:18;;;;;;;12.13;6.43;;;4.10;54.50;;;7.37;38.82;95928.28;5055806;28;20057;-41
2023/03/08 04:50:55;;;;;;;12.70;8.50;;;4.10;55.20;;;7.35;38.94;95922.34;5055587;28;20044;-41
2023/03/08 04:53:25;;;;;;;15.27;8.37;;;4.10;54.60;;;7.37;39.53;95906.28;5055308;28;20053;-40
2023/03/08 04:55:54;;;;;;;10.83;7.13;;;4.00;54.70;;;7.43;38.90;95903.69;5054863;28;20036;-40
2023/03/08 04:58:22;;;;;;;10.90;6.23;;;4.10;54.80;;;7.49;38.83;95897.66;5055191;28;20056;-41
2023/03/08 05:00:50;;;;;;;13.17;6.97;;;4.10;54.70;;;7.53;38.73;95900.78;5073437;28;20029;-41
2023/03/08 05:03:18;;;;;;;12.57;6.03;;;4.10;54.80;;;7.54;38.58;95907.72;5072376;28;20436;-40
2023/03/08 05:05:54;;;;;;;12.63;8.13;;;4.10;54.70;;;7.57;38.83;95907.34;5073220;28;20045;-41
2023/03/08 05:08:22;;;;;;;12.43;6.53;;;4.10;54.70;;;7.59;39.13;95899.22;5054887;28;20049;-41
2023/03/08 05:10:57;;;;;;;12.77;6.90;;;4.10;54.70;;;7.60;38.84;95898.19;5062881;28;20507;-40
2023/03/08 05:13:36;;;;;;;9.17;6.37;;;4.10;55.00;;;7.61;38.78;95892.72;5039260;28;20078;-40
2023/03/08 05:16:07;;;;;;;13.87;7.53;;;4.10;54.70;;;7.61;39.05;95905.16;5054645;28;20045;-41
2023/03/08 05:18:35;;;;;;;10.33;6.30;;;4.10;54.80;;;7.61;38.59;95905.97;5055030;28;20044;-42
2023/03/08 05:21:07;;;;;;;12.80;6.30;;;4.20;54.60;;;7.61;38.68;95911.25;5054481;28;20526;-41
2023/03/08 05:23:36;;;;;;;11.70;6.63;;;4.20;54.50;;;7.57;38.94;95904.69;5054326;28;20045;-40
2023/03/08 05:26:05;;;;;;;9.20;5.20;;;4.20;54.80;;;7.60;38.51;95898.19;5073340;28;20385;-40
2023/03/08 05:28:36;;;;;;;10.10;5.90;;;4.10;54.80;;;7.59;39.15;95905.31;5054810;28;20527;-41
2023/03/08 05:31:08;;;;;;;13.93;6.47;;;4.10;54.70;;;7.58;38.62;95902.84;5054216;28;20048;-43
2023/03/08 05:33:38;;;;;;;11.70;7.23;;;4.10;54.60;;;7.60;39.01;95890.25;5054043;28;20052;-41
2023/03/08 05:36:07;;;;;;;14.17;7.27;;;4.10;54.60;;;7.63;39.23;95882.75;5053847;28;20044;-41
2023/03/08 05:38:35;;;;;;;12.13;6.57;;;4.20;54.80;;;7.64;38.90;95888.91;5054768;28;20495;-41
2023/03/08 05:41:12;;;;;;;11.10;6.90;;;4.20;54.70;;;7.67;38.92;95877.91;5054405;28;20500;-41
2023/03/08 05:43:43;;;;;;;12.53;7.53;;;4.20;54.50;;;7.69;38.72;95883.84;5038363;28;20051;-41
2023/03/08 05:46:17;;;;;;;12.93;7.90;;;4.30;54.40;;;7.72;38.64;95885.31;5053494;28;20079;-40
2023/03/08 05:48:46;;;;;;;20.43;10.40;;;4.20;54.30;;;7.72;39.10;95896.72;5051458;28;20048;-41
2023/03/08 05:51:18;;;;;;;21.37;10.23;;;4.30;54.60;;;7.74;38.57;95894.72;5068633;28;20044;-40
2023/03/08 05:53:46;;;;;;;12.17;6.97;;;4.30;54.70;;;7.74;38.61;95893.91;5053841;28;20048;-41
2023/03/08 05:56:19;;;;;;;12.33;7.10;;;4.20;54.70;;;7.70;39.14;95904.03;5053398;28;20059;-41
2023/03/08 05:58:54;;;;;;;12.60;6.87;;;4.20;55.00;;;7.70;38.70;95893.44;5063652;28;20040;-40
2023/03/08 06:01:26;;;;;;;13.60;7.37;;;4.20;54.70;;;7.69;38.77;95892.59;5054061;28;20048;-40
2023/03/08 06:03:59;;;;;;;11.87;6.53;;;4.20;54.70;;;7.71;38.66;95888.97;5061950;28;20052;-42
2023/03/08 06:06:31;;;;;;;15.03;7.03;;;4.20;54.80;;;7.68;38.82;95890.97;5053201;28;20044;-41
2023/03/08 06:09:03;;;;;;;11.63;7.27;;;4.20;55.00;;;7.72;38.70;95891.44;5054145;28;20059;-41
2023/03/08 06:11:34;;;;;;;16.13;7.27;;;4.20;55.20;;;7.73;38.64;95884.28;5054057;28;20052;-41
2023/03/08 06:14:02;;;;;;;13.80;7.40;;;4.20;54.70;;;7.73;38.73;95882.47;5070740;28;20052;-41
2023/03/08 06:16:32;;;;;;;15.63;8.40;;;4.30;55.10;;;7.75;38.70;95869.84;5053044;28;20045;-41
2023/03/08 06:19:01;;;;;;;32.23;14.07;;;4.30;54.80;;;7.77;38.59;95875.78;5071762;28;20403;-40
2023/03/08 06:21:30;;;;;;;41.90;20.27;;;4.30;54.80;;;7.79;39.00;95871.13;5061795;28;20048;-40
2023/03/08 06:24:03;;;;;;;39.90;24.60;;;4.30;54.70;;;7.80;38.96;95864.81;5062265;28;20045;-41
2023/03/08 06:26:31;;;;;;;27.20;15.33;;;4.30;54.80;;;7.81;38.66;95862.97;5071569;28;20040;-40
2023/03/08 06:28:59;;;;;;;18.23;12.10;;;4.30;54.90;;;7.83;38.78;95853.00;5054245;28;20546;-41
2023/03/08 06:31:30;;;;;;;33.73;22.57;;;4.30;55.10;;;7.85;38.93;95843.06;5061736;28;20419;-41
2023/03/08 06:33:57;;;;;;;24.93;17.93;;;4.40;55.10;;;7.88;39.09;95843.50;5053633;28;20052;-40
2023/03/08 06:36:27;;;;;;;17.60;11.63;;;4.40;55.00;;;7.91;38.69;95838.84;5056033;28;20045;-42
2023/03/08 06:38:54;;;;;;;14.13;8.07;;;4.40;54.90;;;7.90;39.06;95835.38;5052918;28;20044;-40
2023/03/08 06:41:24;;;;;;;10.77;7.10;;;4.40;54.80;;;7.88;38.90;95827.59;5053392;28;20040;-41
2023/03/08 06:43:55;;;;;;;13.50;8.27;;;4.40;54.50;;;7.91;39.27;95833.53;5052964;28;20504;-40
2023/03/08 06:46:23;;;;;;;14.13;9.00;;;4.50;55.00;;;7.95;38.86;95832.97;5053043;28;20049;-40
2023/03/08 06:48:51;;;;;;;13.47;8.23;;;4.50;55.00;;;8.00;39.07;95833.22;5070103;28;20530;-40
2023/03/08 06:51:19;;;;;;;14.40;7.03;;;4.60;54.60;;;8.02;38.95;95830.38;5052960;28;20052;-41
2023/03/08 06:53:47;;;;;;;12.27;7.63;;;4.60;54.60;;;8.01;39.05;95818.16;5053095;28;20044;-40
2023/03/08 06:56:18;;;;;;;12.83;6.80;;;4.60;54.50;;;8.05;38.75;95830.03;5052375;28;20051;-40
2023/03/08 06:58:46;;;;;;;13.80;8.50;;;4.70;54.50;;;8.08;39.05;95816.38;5070848;28;20044;-39
2023/03/08 07:01:13;;;;;;;14.83;8.70;;;4.70;54.70;;;8.13;38.79;95818.47;5052983;28;20372;-39
2023/03/08 07:03:43;;;;;;;13.40;7.43;;;4.70;54.90;;;8.14;38.82;95812.94;5070519;28;20051;-40
2023/03/08 07:06:11;;;;;;;12.53;7.63;;;4.70;55.00;;;8.16;38.88;95805.66;5052912;28;20075;-39
2023/03/08 07:08:39;;;;;;;15.87;8.27;;;4.80;54.90;;;8.19;39.14;95799.16;5070524;28;20048;-39
2023/03/08 07:11:08;;;;;;;11.60;7.43;;;4.70;55.00;;;8.22;39.31;95799.59;5070883;28;20495;-39
2023/03/08 07:13:37;;;;;;;13.17;7.13;;;4.80;55.10;;;8.28;39.16;95803.31;5045046;28;20052;-40
2023/03/08 07:16:12;;;;;;;11.70;6.80;;;4.90;55.30;;;8.33;39.19;95802.72;5070468;28;20103;-40
2023/03/08 07:18:40;;;;;;;14.13;7.43;;;4.80;55.40;;;8.34;39.25;95805.19;5070583;28;20052;-40
2023/03/08 07:21:09;;;;;;;11.83;6.37;;;4.90;55.70;;;8.37;39.44;95796.81;5070879;28;20376;-40
2023/03/08 07:23:36;;;;;;;10.50;6.53;;;4.90;55.90;;;8.38;39.52;95782.56;5071017;28;20044;-40
2023/03/08 07:26:06;;;;;;;10.87;6.33;;;4.90;56.30;;;8.40;39.51;95771.78;5070460;28;20059;-41
2023/03/08 07:28:34;;;;;;;10.27;7.10;;;4.90;56.50;;;8.42;39.82;95775.09;5070619;28;20059;-40
2023/03/08 07:31:02;;;;;;;12.07;6.00;;;4.90;56.70;;;8.42;39.76;95773.25;5052731;28;20044;-40
2023/03/08 07:33:29;;;;;;;12.40;6.57;;;4.90;57.20;;;8.39;40.19;95765.63;5067413;28;20056;-40
2023/03/08 07:36:01;;;;;;;7.83;5.60;;;4.90;58.30;;;8.41;39.81;95762.78;5069714;28;20059;-39
2023/03/08 07:38:28;;;;;;;8.47;4.97;;;4.90;59.10;;;8.41;40.54;95749.53;5070561;28;20041;-40
2023/03/08 07:40:56;;;;;;;12.43;5.97;;;4.90;59.00;;;8.45;40.51;95753.47;5070763;28;20047;-40
2023/03/08 07:43:24;;;;;;;15.73;7.37;;;4.90;59.30;;;8.48;40.37;95761.03;5070867;28;20045;-40
2023/03/08 07:46:01;;;;;;;11.17;5.93;;;5.00;59.10;;;8.50;40.71;95759.03;5053192;28;20048;-40
2023/03/08 07:48:30;;;;;;;9.37;5.70;;;5.00;59.30;;;8.51;40.97;95755.38;5070471;28;20055;-40
2023/03/08 07:51:08;;;;;;;9.40;5.67;;;5.00;60.40;;;8.49;41.25;95749.41;5070354;28;20048;-41
2023/03/08 07:53:36;;;;;;;8.67;5.87;;;5.00;63.20;;;8.49;41.86;95741.44;5070479;28;20044;-40
2023/03/08 07:56:05;;;;;;;9.13;5.93;;;5.00;63.30;;;8.52;42.24;95742.91;5074187;28;20107;-40
2023/03/08 07:58:32;;;;;;;8.90;5.93;;;5.00;64.30;;;8.52;42.45;95733.13;5056728;28;20040;-40
2023/03/08 08:01:00;;;;;;;11.07;5.43;;;5.00;64.90;;;8.54;42.39;95724.97;5056343;28;20052;-40
2023/03/08 08:03:28;;;;;;;9.60;6.77;;;5.10;65.20;;;8.57;42.70;95727.22;5073916;28;20033;-40
2023/03/08 08:06:00;;;;;;;10.63;6.67;;;5.10;65.50;;;8.54;42.82;95725.78;5063728;28;20075;-42
2023/03/08 08:08:27;;;;;;;10.77;6.10;;;5.20;64.60;;;8.54;42.73;95719.66;5057090;28;20044;-40
2023/03/08 08:10:55;;;;;;;13.83;7.17;;;5.20;64.10;;;8.48;43.02;95710.66;5074019;28;20052;-43
2023/03/08 08:13:22;;;;;;;15.27;7.50;;;5.20;64.10;;;8.48;42.83;95706.16;5039617;28;20061;-41
2023/03/08 08:16:01;;;;;;;11.33;7.77;;;5.30;63.90;;;8.51;42.92;95701.47;5073650;28;20044;-41
2023/03/08 08:18:29;;;;;;;9.43;6.73;;;5.30;65.00;;;8.51;43.28;95688.22;5073945;28;20044;-40
2023/03/08 08:21:09;;;;;;;12.73;7.57;;;5.30;64.10;;;8.52;43.17;95687.22;5074026;28;20416;-40
2023/03/08 08:23:38;;;;;;;14.67;6.90;;;5.20;65.70;;;8.57;43.20;95692.75;5073875;28;20044;-41
2023/03/08 08:26:10;;;;;;;13.50;7.57;;;5.20;65.10;;;8.55;43.41;95666.44;5073843;28;20051;-40
2023/03/08 08:28:39;;;;;;;12.20;6.87;;;5.20;66.10;;;8.56;43.32;95646.84;5073886;28;20044;-41
2023/03/08 08:31:12;;;;;;;12.30;7.57;;;5.20;65.90;;;8.51;43.83;95649.28;5055817;28;20048;-41
2023/03/08 08:33:40;;;;;;;10.40;7.27;;;5.20;66.90;;;8.56;44.05;95643.38;5056337;28;20396;-43
2023/03/08 08:36:14;;;;;;;13.37;7.30;;;5.20;67.50;;;8.61;44.01;95644.44;5073105;28;20055;-41
2023/03/08 08:38:47;;;;;;;13.63;7.60;;;5.30;68.00;;;8.65;44.39;95636.91;5072375;28;20047;-40
2023/03/08 08:41:18;;;;;;;12.00;7.53;;;5.30;68.10;;;8.66;44.70;95634.03;5073239;28;20047;-41
2023/03/08 08:43:47;;;;;;;14.03;7.33;;;5.30;70.20;;;8.69;44.85;95637.31;5073374;28;20055;-41
2023/03/08 08:46:16;;;;;;;13.17;7.10;;;5.40;70.30;;;8.75;44.90;95639.97;5072862;28;20071;-42
2023/03/08 08:48:44;;;;;;;13.77;7.00;;;5.40;70.80;;;8.83;45.09;95636.34;5072944;28;20123;-41
2023/03/08 08:51:12;;;;;;;13.33;7.77;;;5.40;71.90;;;8.90;44.93;95631.03;5073351;28;20520;-41
2023/03/08 08:53:40;;;;;;;13.43;7.03;;;5.50;70.50;;;8.93;45.24;95623.50;5073065;28;20051;-43
2023/03/08 08:56:19;;;;;;;13.60;7.37;;;5.50;71.90;;;8.99;45.17;95625.34;5073175;28;20040;-42
2023/03/08 08:59:01;;;;;;;12.03;7.60;;;5.50;71.80;;;9.06;45.22;95610.25;5047131;28;20385;-41
2023/03/08 09:01:34;;;;;;;14.33;8.33;;;5.60;72.00;;;9.09;45.47;95608.22;5073092;28;20068;-43
2023/03/08 09:04:02;;;;;;;12.85;7.70;;;5.70;71.40;;;9.12;45.37;95602.53;5066069;28;20048;-43
2023/03/08 09:06:29;;;;;;;13.63;8.23;;;5.70;71.70;;;9.13;45.36;95604.97;5072070;28;20048;-41
2023/03/08 09:08:58;;;;;;;13.23;8.53;;;5.70;71.50;;;9.20;45.51;95597.03;5073163;28;20040;-43
2023/03/08 09:11:26;;;;;;;10.57;7.13;;;5.80;72.20;;;9.22;45.42;95593.13;5055142;28;20539;-41
2023/03/08 09:13:54;;;;;;;13.10;7.43;;;5.90;71.70;;;9.24;45.57;95588.44;5072337;28;20048;-48
2023/03/08 09:16:33;;;;;;;11.97;7.77;;;5.90;71.70;;;9.30;45.51;95593.97;5054938;28;20048;-46
2023/03/08 09:19:03;;;;;;;11.33;7.33;;;5.90;72.20;;;9.34;45.44;95590.69;5065852;28;20037;-44
2023/03/08 09:21:32;;;;;;;16.37;7.67;;;5.90;72.30;;;9.35;45.68;95586.22;5073042;28;20416;-45
2023/03/08 09:24:04;;;;;;;17.30;7.50;;;5.90;72.50;;;9.37;45.73;95584.16;5038857;28;20055;-48
2023/03/08 09:26:33;;;;;;;12.83;7.50;;;6.00;72.10;;;9.36;45.66;95583.34;5072225;28;20045;-44
2023/03/08 09:29:04;;;;;;;13.93;8.07;;;6.00;71.80;;;9.35;45.58;95576.41;5055458;28;20044;-43
2023/03/08 09:31:34;;;;;;;12.77;7.50;;;6.00;71.30;;;9.32;45.84;95560.88;5055689;28;20059;-44
2023/03/08 09:34:07;;;;;;;12.93;7.90;;;6.00;72.50;;;9.38;45.98;95559.22;5072755;28;20052;-46
2023/03/08 09:36:38;;;;;;;12.27;7.87;;;6.10;71.80;;;9.44;46.10;95553.94;5072401;28;20044;-44
2023/03/08 09:39:09;;;;;;;12.03;7.87;;;6.10;71.80;;;9.48;45.96;95548.19;5054476;28;20041;-45
2023/03/08 09:41:53;;;;;;;14.07;8.00;;;6.20;72.10;;;9.56;45.88;95540.84;5055123;28;20051;-45
2023/03/08 09:44:50;;;;;;;13.25;7.53;;;6.20;72.00;;;9.60;45.79;95535.94;5055925;28;20041;-46
2023/03/08 09:47:47;;;;;;;14.60;8.20;;;6.30;71.60;;;9.61;45.88;95532.25;5050409;28;20055;-47
2023/03/08 09:50:34;;;;;;;14.93;7.53;;;6.40;72.20;;;9.63;46.02;95535.50;5052308;28;20045;-45
2023/03/08 09:53:25;;;;;;;12.40;7.47;;;6.30;72.20;;;9.58;46.17;95527.38;5065401;28;20047;-48
2023/03/08 09:56:28;;;;;;;12.10;7.77;;;6.40;72.70;;;9.66;46.26;95527.13;5054635;28;20055;-46
2023/03/08 09:59:29;;;;;;;13.00;8.60;;;6.40;72.90;;;9.82;46.25;95509.94;5068495;28;20500;-43
2023/03/08 10:02:58;;;;;;;14.97;7.63;;;6.60;72.40;;;9.96;46.36;95508.84;5057763;28;20040;-48
2023/03/08 10:05:43;;;;;;;14.97;8.00;;;6.70;72.90;;;10.04;46.26;95495.34;5060746;28;20502;-43
2023/03/08 10:08:32;;;;;;;15.57;8.10;;;6.80;73.20;;;10.10;46.56;95509.66;5049321;28;20055;-45
2023/03/08 10:11:12;;;;;;;17.03;9.63;;;6.90;73.20;;;10.20;46.67;95499.38;5048508;28;20084;-44
2023/03/08 10:13:46;;;;;;;12.80;8.00;;;6.90;72.70;;;10.13;46.96;95490.59;5056328;28;20044;-45
2023/03/08 10:16:20;;;;;;;13.18;7.00;;;6.90;73.60;;;10.16;46.94;95500.03;5055185;28;20048;-47
2023/03/08 10:19:04;;;;;;;13.83;7.53;;;6.90;74.10;;;10.13;47.52;95493.25;5053726;28;20480;-44
2023/03/08 10:21:36;;;;;;;11.37;6.20;;;6.90;74.70;;;10.08;47.85;95485.13;5071772;28;20051;-47
2023/03/08 10:24:43;;;;;;;12.23;6.63;;;6.90;75.20;;;9.99;48.68;95483.72;5051775;28;20045;-45
2023/03/08 10:27:22;;;;;;;11.03;6.27;;;6.90;76.30;;;10.12;48.06;95478.34;5051226;28;20048;-44
2023/03/08 10:29:57;;;;;;;9.47;5.93;;;6.90;77.40;;;10.12;48.51;95466.88;5038929;28;20055;-46
2023/03/08 10:32:27;;;;;;;9.70;5.50;;;6.90;77.80;;;10.21;48.73;95470.94;5063350;28;20056;-48
2023/03/08 10:35:03;;;;;;;8.40;5.13;;;7.10;78.40;;;10.21;49.45;95458.44;5050407;28;20056;-45
2023/03/08 10:37:32;;;;;;;12.33;5.80;;;7.10;80.00;;;10.27;49.42;95461.31;5054571;28;20045;-47
2023/03/08 10:40:19;;;;;;;8.63;4.80;;;7.20;80.00;;;10.25;50.46;95458.84;5069423;28;20383;-48
2023/03/08 10:43:04;;;;;;;5.83;4.10;;;7.20;81.20;;;10.34;49.90;95446.97;5047830;28;20049;-43
2023/03/08 10:45:32;;;;;;;8.40;4.20;;;7.30;81.60;;;10.48;50.18;95438.91;5049127;28;20048;-44
2023/03/08 10:48:03;;;;;;;8.23;5.33;;;7.40;81.80;;;10.52;50.10;95437.44;5049007;28;20052;-45